sensor_id;sensor_type;location;lat;lon;timestamp;P1;durP1;ratioP1;P2;durP2;ratioP2
75163;SDS011;63746;45.402;37.922;2023-03-14T00:02:00;0.52;;;0.52;;
75163;SDS011;63746;45.402;37.922;2023-03-14T00:04:25;0.65;;;0.65;;
75163;SDS011;63746;45.402;37.922;2023-03-14T00:06:51;0.08;;;0.00;;
75163;SDS011;63746;45.402;37.922;2023-03-14T00:09:17;1.30;;;0.80;;
75163;SDS011;63746;45.402;37.922;2023-03-14T00:11:43;0.20;;;0.20;;
75163;SDS011;63746;45.402;37.922;2023-03-14T00:14:09;0.00;;;0.00;;
75163;SDS011;63746;45.402;37.922;2023-03-14T00:16:35;0.00;;;0.00;;
75163;SDS011;63746;45.402;37.922;2023-03-14T00:19:01;0.00;;;0.00;;
75163;SDS011;63746;45.402;37.922;2023-03-14T00:21:27;0.90;;;0.52;;
75163;SDS011;63746;45.402;37.922;2023-03-14T00:23:53;0.65;;;0.65;;
75163;SDS011;63746;45.402;37.922;2023-03-14T00:26:19;0.13;;;0.10;;
75163;SDS011;63746;45.402;37.922;2023-03-14T00:28:46;0.30;;;0.30;;
75163;SDS011;63746;45.402;37.922;2023-03-14T00:31:16;0.05;;;0.00;;
75163;SDS011;63746;45.402;37.922;2023-03-14T00:33:42;0.45;;;0.35;;
75163;SDS011;63746;45.402;37.922;2023-03-14T00:36:11;0.08;;;0.00;;
75163;SDS011;63746;45.402;37.922;2023-03-14T00:38:38;0.00;;;0.00;;
75163;SDS011;63746;45.402;37.922;2023-03-14T00:41:10;0.00;;;0.00;;
75163;SDS011;63746;45.402;37.922;2023-03-14T00:43:40;0.00;;;0.00;;
75163;SDS011;63746;45.402;37.922;2023-03-14T00:46:07;0.08;;;0.08;;
75163;SDS011;63746;45.402;37.922;2023-03-14T00:48:33;0.10;;;0.10;;
75163;SDS011;63746;45.402;37.922;2023-03-14T00:51:00;0.17;;;0.17;;
75163;SDS011;63746;45.402;37.922;2023-03-14T00:53:26;0.00;;;0.00;;
75163;SDS011;63746;45.402;37.922;2023-03-14T00:55:52;0.00;;;0.00;;
75163;SDS011;63746;45.402;37.922;2023-03-14T00:58:18;0.13;;;0.10;;
75163;SDS011;63746;45.402;37.922;2023-03-14T01:00:44;0.10;;;0.00;;
75163;SDS011;63746;45.402;37.922;2023-03-14T01:03:11;0.35;;;0.30;;
75163;SDS011;63746;45.402;37.922;2023-03-14T01:05:38;0.05;;;0.05;;
75163;SDS011;63746;45.402;37.922;2023-03-14T01:08:04;0.00;;;0.00;;
75163;SDS011;63746;45.402;37.922;2023-03-14T01:10:33;0.00;;;0.00;;
75163;SDS011;63746;45.402;37.922;2023-03-14T01:13:00;0.13;;;0.10;;
75163;SDS011;63746;45.402;37.922;2023-03-14T01:15:27;7.30;;;6.22;;
75163;SDS011;63746;45.402;37.922;2023-03-14T01:17:53;0.00;;;0.00;;
75163;SDS011;63746;45.402;37.922;2023-03-14T01:20:19;0.00;;;0.00;;
75163;SDS011;63746;45.402;37.922;2023-03-14T01:22:45;0.63;;;0.63;;
75163;SDS011;63746;45.402;37.922;2023-03-14T01:25:12;0.00;;;0.00;;
75163;SDS011;63746;45.402;37.922;2023-03-14T01:27:39;0.00;;;0.00;;
75163;SDS011;63746;45.402;37.922;2023-03-14T01:30:07;0.17;;;0.13;;
75163;SDS011;63746;45.402;37.922;2023-03-14T01:32:34;0.00;;;0.00;;
75163;SDS011;63746;45.402;37.922;2023-03-14T01:35:00;1.40;;;0.68;;
75163;SDS011;63746;45.402;37.922;2023-03-14T01:37:26;0.00;;;0.00;;
75163;SDS011;63746;45.402;37.922;2023-03-14T01:39:52;0.43;;;0.43;;
75163;SDS011;63746;45.402;37.922;2023-03-14T01:42:19;3.95;;;0.82;;
75163;SDS011;63746;45.402;37.922;2023-03-14T01:44:49;0.00;;;0.00;;
75163;SDS011;63746;45.402;37.922;2023-03-14T01:47:20;0.00;;;0.00;;
75163;SDS011;63746;45.402;37.922;2023-03-14T01:49:58;0.08;;;0.00;;
75163;SDS011;63746;45.402;37.922;2023-03-14T01:52:36;0.00;;;0.00;;
75163;SDS011;63746;45.402;37.922;2023-03-14T01:55:07;0.15;;;0.13;;
75163;SDS011;63746;45.402;37.922;2023-03-14T01:57:39;0.00;;;0.00;;
75163;SDS011;63746;45.402;37.922;2023-03-14T02:00:11;0.00;;;0.00;;
75163;SDS011;63746;45.402;37.922;2023-03-14T02:02:41;0.03;;;0.03;;
75163;SDS011;63746;45.402;37.922;2023-03-14T02:05:12;0.00;;;0.00;;
75163;SDS011;63746;45.402;37.922;2023-03-14T02:07:50;0.00;;;0.00;;
75163;SDS011;63746;45.402;37.922;2023-03-14T02:10:23;0.25;;;0.25;;
75163;SDS011;63746;45.402;37.922;2023-03-14T02:12:56;0.00;;;0.00;;
75163;SDS011;63746;45.402;37.922;2023-03-14T02:15:38;0.10;;;0.10;;
75163;SDS011;63746;45.402;37.922;2023-03-14T02:18:24;0.22;;;0.15;;
75163;SDS011;63746;45.402;37.922;2023-03-14T02:29:57;0.00;;;0.00;;
75163;SDS011;63746;45.402;37.922;2023-03-14T02:32:27;0.00;;;0.00;;
75163;SDS011;63746;45.402;37.922;2023-03-14T02:37:25;0.00;;;0.00;;
75163;SDS011;63746;45.402;37.922;2023-03-14T02:39:58;0.00;;;0.00;;
75163;SDS011;63746;45.402;37.922;2023-03-14T02:42:25;0.00;;;0.00;;
75163;SDS011;63746;45.402;37.922;2023-03-14T02:44:58;0.00;;;0.00;;
75163;SDS011;63746;45.402;37.922;2023-03-14T02:47:49;0.00;;;0.00;;
75163;SDS011;63746;45.402;37.922;2023-03-14T02:50:22;0.00;;;0.00;;
75163;SDS011;63746;45.402;37.922;2023-03-14T02:52:53;1.02;;;0.63;;
75163;SDS011;63746;45.402;37.922;2023-03-14T02:55:22;0.00;;;0.00;;
75163;SDS011;63746;45.402;37.922;2023-03-14T02:57:52;0.08;;;0.00;;
75163;SDS011;63746;45.402;37.922;2023-03-14T03:00:18;0.52;;;0.20;;
75163;SDS011;63746;45.402;37.922;2023-03-14T03:02:45;0.15;;;0.08;;
75163;SDS011;63746;45.402;37.922;2023-03-14T03:05:13;0.00;;;0.00;;
75163;SDS011;63746;45.402;37.922;2023-03-14T03:07:39;0.08;;;0.00;;
75163;SDS011;63746;45.402;37.922;2023-03-14T03:10:05;0.00;;;0.00;;
75163;SDS011;63746;45.402;37.922;2023-03-14T03:12:32;0.00;;;0.00;;
75163;SDS011;63746;45.402;37.922;2023-03-14T03:14:58;0.28;;;0.28;;
75163;SDS011;63746;45.402;37.922;2023-03-14T03:17:24;0.10;;;0.10;;
75163;SDS011;63746;45.402;37.922;2023-03-14T03:19:50;0.63;;;0.45;;
75163;SDS011;63746;45.402;37.922;2023-03-14T03:22:16;0.00;;;0.00;;
75163;SDS011;63746;45.402;37.922;2023-03-14T03:24:42;0.00;;;0.00;;
75163;SDS011;63746;45.402;37.922;2023-03-14T03:27:09;0.03;;;0.03;;
75163;SDS011;63746;45.402;37.922;2023-03-14T03:29:35;0.00;;;0.00;;
75163;SDS011;63746;45.402;37.922;2023-03-14T03:32:02;0.00;;;0.00;;
75163;SDS011;63746;45.402;37.922;2023-03-14T03:34:28;0.10;;;0.10;;
75163;SDS011;63746;45.402;37.922;2023-03-14T03:36:58;0.10;;;0.10;;
75163;SDS011;63746;45.402;37.922;2023-03-14T03:39:27;0.00;;;0.00;;
75163;SDS011;63746;45.402;37.922;2023-03-14T03:41:53;0.00;;;0.00;;
75163;SDS011;63746;45.402;37.922;2023-03-14T03:44:19;0.00;;;0.00;;
75163;SDS011;63746;45.402;37.922;2023-03-14T03:46:45;0.00;;;0.00;;
75163;SDS011;63746;45.402;37.922;2023-03-14T03:49:11;0.00;;;0.00;;
75163;SDS011;63746;45.402;37.922;2023-03-14T03:51:37;0.00;;;0.00;;
75163;SDS011;63746;45.402;37.922;2023-03-14T03:54:03;0.00;;;0.00;;
75163;SDS011;63746;45.402;37.922;2023-03-14T03:56:32;0.00;;;0.00;;
75163;SDS011;63746;45.402;37.922;2023-03-14T03:58:59;0.00;;;0.00;;
75163;SDS011;63746;45.402;37.922;2023-03-14T04:01:24;0.00;;;0.00;;
75163;SDS011;63746;45.402;37.922;2023-03-14T04:03:54;0.00;;;0.00;;
75163;SDS011;63746;45.402;37.922;2023-03-14T04:06:20;0.00;;;0.00;;
75163;SDS011;63746;45.402;37.922;2023-03-14T04:08:49;0.00;;;0.00;;
75163;SDS011;63746;45.402;37.922;2023-03-14T04:11:31;0.08;;;0.00;;
75163;SDS011;63746;45.402;37.922;2023-03-14T04:14:16;0.13;;;0.13;;
75163;SDS011;63746;45.402;37.922;2023-03-14T04:16:42;0.00;;;0.00;;
75163;SDS011;63746;45.402;37.922;2023-03-14T04:19:13;0.00;;;0.00;;
75163;SDS011;63746;45.402;37.922;2023-03-14T04:21:39;0.00;;;0.00;;
75163;SDS011;63746;45.402;37.922;2023-03-14T04:24:10;0.00;;;0.00;;
75163;SDS011;63746;45.402;37.922;2023-03-14T04:26:37;0.00;;;0.00;;
75163;SDS011;63746;45.402;37.922;2023-03-14T04:29:03;0.00;;;0.00;;
75163;SDS011;63746;45.402;37.922;2023-03-14T04:31:30;0.00;;;0.00;;
75163;SDS011;63746;45.402;37.922;2023-03-14T04:33:56;0.00;;;0.00;;
75163;SDS011;63746;45.402;37.922;2023-03-14T04:36:32;0.00;;;0.00;;
75163;SDS011;63746;45.402;37.922;2023-03-14T04:39:02;0.00;;;0.00;;
75163;SDS011;63746;45.402;37.922;2023-03-14T04:41:30;0.00;;;0.00;;
75163;SDS011;63746;45.402;37.922;2023-03-14T04:43:55;0.00;;;0.00;;
75163;SDS011;63746;45.402;37.922;2023-03-14T04:46:21;0.00;;;0.00;;
75163;SDS011;63746;45.402;37.922;2023-03-14T04:48:48;0.00;;;0.00;;
75163;SDS011;63746;45.402;37.922;2023-03-14T04:51:16;0.00;;;0.00;;
75163;SDS011;63746;45.402;37.922;2023-03-14T04:53:42;0.00;;;0.00;;
75163;SDS011;63746;45.402;37.922;2023-03-14T04:56:10;0.00;;;0.00;;
75163;SDS011;63746;45.402;37.922;2023-03-14T04:58:39;0.00;;;0.00;;
75163;SDS011;63746;45.402;37.922;2023-03-14T05:01:06;0.00;;;0.00;;
75163;SDS011;63746;45.402;37.922;2023-03-14T05:03:45;0.00;;;0.00;;
75163;SDS011;63746;45.402;37.922;2023-03-14T05:06:40;0.00;;;0.00;;
75163;SDS011;63746;45.402;37.922;2023-03-14T05:09:34;0.00;;;0.00;;
75163;SDS011;63746;45.402;37.922;2023-03-14T05:12:21;0.00;;;0.00;;
75163;SDS011;63746;45.402;37.922;2023-03-14T05:18:01;0.10;;;0.00;;
75163;SDS011;63746;45.402;37.922;2023-03-14T05:20:35;0.00;;;0.00;;
75163;SDS011;63746;45.402;37.922;2023-03-14T05:23:20;0.00;;;0.00;;
75163;SDS011;63746;45.402;37.922;2023-03-14T05:25:52;0.00;;;0.00;;
75163;SDS011;63746;45.402;37.922;2023-03-14T05:28:44;0.00;;;0.00;;
75163;SDS011;63746;45.402;37.922;2023-03-14T05:31:23;0.00;;;0.00;;
75163;SDS011;63746;45.402;37.922;2023-03-14T05:34:03;0.00;;;0.00;;
75163;SDS011;63746;45.402;37.922;2023-03-14T05:36:55;0.00;;;0.00;;
75163;SDS011;63746;45.402;37.922;2023-03-14T05:39:41;0.00;;;0.00;;
75163;SDS011;63746;45.402;37.922;2023-03-14T05:42:18;0.00;;;0.00;;
75163;SDS011;63746;45.402;37.922;2023-03-14T05:44:44;0.00;;;0.00;;
75163;SDS011;63746;45.402;37.922;2023-03-14T05:47:36;0.00;;;0.00;;
75163;SDS011;63746;45.402;37.922;2023-03-14T05:50:31;0.08;;;0.00;;
75163;SDS011;63746;45.402;37.922;2023-03-14T05:53:17;0.08;;;0.00;;
75163;SDS011;63746;45.402;37.922;2023-03-14T05:56:11;0.00;;;0.00;;
75163;SDS011;63746;45.402;37.922;2023-03-14T05:58:56;0.08;;;0.00;;
75163;SDS011;63746;45.402;37.922;2023-03-14T06:01:30;0.00;;;0.00;;
75163;SDS011;63746;45.402;37.922;2023-03-14T06:06:32;0.00;;;0.00;;
75163;SDS011;63746;45.402;37.922;2023-03-14T06:08:59;0.00;;;0.00;;
75163;SDS011;63746;45.402;37.922;2023-03-14T06:11:26;0.00;;;0.00;;
75163;SDS011;63746;45.402;37.922;2023-03-14T06:13:51;0.00;;;0.00;;
75163;SDS011;63746;45.402;37.922;2023-03-14T06:16:18;0.00;;;0.00;;
75163;SDS011;63746;45.402;37.922;2023-03-14T06:18:44;0.05;;;0.00;;
75163;SDS011;63746;45.402;37.922;2023-03-14T06:21:13;0.00;;;0.00;;
75163;SDS011;63746;45.402;37.922;2023-03-14T06:23:39;0.00;;;0.00;;
75163;SDS011;63746;45.402;37.922;2023-03-14T06:26:05;0.00;;;0.00;;
75163;SDS011;63746;45.402;37.922;2023-03-14T06:28:31;0.00;;;0.00;;
75163;SDS011;63746;45.402;37.922;2023-03-14T06:31:00;0.00;;;0.00;;
75163;SDS011;63746;45.402;37.922;2023-03-14T06:33:30;0.00;;;0.00;;
75163;SDS011;63746;45.402;37.922;2023-03-14T06:35:57;0.00;;;0.00;;
75163;SDS011;63746;45.402;37.922;2023-03-14T06:38:23;0.00;;;0.00;;
75163;SDS011;63746;45.402;37.922;2023-03-14T06:40:53;0.00;;;0.00;;
75163;SDS011;63746;45.402;37.922;2023-03-14T06:43:29;0.05;;;0.00;;
75163;SDS011;63746;45.402;37.922;2023-03-14T06:45:55;0.03;;;0.03;;
75163;SDS011;63746;45.402;37.922;2023-03-14T06:48:21;0.00;;;0.00;;
75163;SDS011;63746;45.402;37.922;2023-03-14T06:50:51;0.03;;;0.00;;
75163;SDS011;63746;45.402;37.922;2023-03-14T06:53:17;0.00;;;0.00;;
75163;SDS011;63746;45.402;37.922;2023-03-14T06:55:44;0.00;;;0.00;;
75163;SDS011;63746;45.402;37.922;2023-03-14T06:58:13;0.00;;;0.00;;
75163;SDS011;63746;45.402;37.922;2023-03-14T07:00:42;0.00;;;0.00;;
75163;SDS011;63746;45.402;37.922;2023-03-14T07:03:11;0.00;;;0.00;;
75163;SDS011;63746;45.402;37.922;2023-03-14T07:05:41;0.00;;;0.00;;
75163;SDS011;63746;45.402;37.922;2023-03-14T07:08:07;0.00;;;0.00;;
75163;SDS011;63746;45.402;37.922;2023-03-14T07:10:34;0.00;;;0.00;;
75163;SDS011;63746;45.402;37.922;2023-03-14T07:13:00;0.00;;;0.00;;
75163;SDS011;63746;45.402;37.922;2023-03-14T07:15:29;0.00;;;0.00;;
75163;SDS011;63746;45.402;37.922;2023-03-14T07:18:00;0.00;;;0.00;;
75163;SDS011;63746;45.402;37.922;2023-03-14T07:20:27;0.00;;;0.00;;
75163;SDS011;63746;45.402;37.922;2023-03-14T07:22:54;0.43;;;0.10;;
75163;SDS011;63746;45.402;37.922;2023-03-14T07:25:33;0.00;;;0.00;;
75163;SDS011;63746;45.402;37.922;2023-03-14T07:27:59;0.00;;;0.00;;
75163;SDS011;63746;45.402;37.922;2023-03-14T07:30:25;0.00;;;0.00;;
75163;SDS011;63746;45.402;37.922;2023-03-14T07:32:52;0.10;;;0.10;;
75163;SDS011;63746;45.402;37.922;2023-03-14T07:35:21;0.00;;;0.00;;
75163;SDS011;63746;45.402;37.922;2023-03-14T07:37:47;0.03;;;0.00;;
75163;SDS011;63746;45.402;37.922;2023-03-14T07:40:15;0.00;;;0.00;;
75163;SDS011;63746;45.402;37.922;2023-03-14T07:42:42;0.00;;;0.00;;
75163;SDS011;63746;45.402;37.922;2023-03-14T07:45:23;0.10;;;0.05;;
75163;SDS011;63746;45.402;37.922;2023-03-14T07:49:18;0.00;;;0.00;;
75163;SDS011;63746;45.402;37.922;2023-03-14T07:51:47;0.00;;;0.00;;
75163;SDS011;63746;45.402;37.922;2023-03-14T07:54:13;0.00;;;0.00;;
75163;SDS011;63746;45.402;37.922;2023-03-14T07:56:39;0.00;;;0.00;;
75163;SDS011;63746;45.402;37.922;2023-03-14T07:59:05;0.00;;;0.00;;
75163;SDS011;63746;45.402;37.922;2023-03-14T08:01:32;0.00;;;0.00;;
75163;SDS011;63746;45.402;37.922;2023-03-14T08:03:58;0.00;;;0.00;;
75163;SDS011;63746;45.402;37.922;2023-03-14T08:06:24;0.08;;;0.00;;
75163;SDS011;63746;45.402;37.922;2023-03-14T08:08:50;0.00;;;0.00;;
75163;SDS011;63746;45.402;37.922;2023-03-14T08:11:16;0.00;;;0.00;;
75163;SDS011;63746;45.402;37.922;2023-03-14T08:13:42;0.00;;;0.00;;
75163;SDS011;63746;45.402;37.922;2023-03-14T08:16:15;0.00;;;0.00;;
75163;SDS011;63746;45.402;37.922;2023-03-14T08:18:42;0.00;;;0.00;;
75163;SDS011;63746;45.402;37.922;2023-03-14T08:21:09;0.00;;;0.00;;
75163;SDS011;63746;45.402;37.922;2023-03-14T08:23:35;0.00;;;0.00;;
75163;SDS011;63746;45.402;37.922;2023-03-14T08:26:01;0.00;;;0.00;;
75163;SDS011;63746;45.402;37.922;2023-03-14T08:28:27;0.00;;;0.00;;
75163;SDS011;63746;45.402;37.922;2023-03-14T08:30:58;0.00;;;0.00;;
75163;SDS011;63746;45.402;37.922;2023-03-14T08:33:25;0.00;;;0.00;;
75163;SDS011;63746;45.402;37.922;2023-03-14T08:35:53;0.00;;;0.00;;
75163;SDS011;63746;45.402;37.922;2023-03-14T08:38:20;0.03;;;0.03;;
75163;SDS011;63746;45.402;37.922;2023-03-14T08:40:46;0.03;;;0.00;;
75163;SDS011;63746;45.402;37.922;2023-03-14T08:43:12;0.00;;;0.00;;
75163;SDS011;63746;45.402;37.922;2023-03-14T08:45:38;0.00;;;0.00;;
75163;SDS011;63746;45.402;37.922;2023-03-14T08:48:04;0.00;;;0.00;;
75163;SDS011;63746;45.402;37.922;2023-03-14T08:50:30;0.00;;;0.00;;
75163;SDS011;63746;45.402;37.922;2023-03-14T08:52:56;0.00;;;0.00;;
75163;SDS011;63746;45.402;37.922;2023-03-14T08:55:25;0.00;;;0.00;;
75163;SDS011;63746;45.402;37.922;2023-03-14T08:57:53;0.00;;;0.00;;
75163;SDS011;63746;45.402;37.922;2023-03-14T09:00:20;0.00;;;0.00;;
75163;SDS011;63746;45.402;37.922;2023-03-14T09:02:46;0.00;;;0.00;;
75163;SDS011;63746;45.402;37.922;2023-03-14T09:05:12;0.00;;;0.00;;
75163;SDS011;63746;45.402;37.922;2023-03-14T09:07:38;0.00;;;0.00;;
75163;SDS011;63746;45.402;37.922;2023-03-14T09:10:06;0.00;;;0.00;;
75163;SDS011;63746;45.402;37.922;2023-03-14T09:12:33;0.00;;;0.00;;
75163;SDS011;63746;45.402;37.922;2023-03-14T09:14:59;0.00;;;0.00;;
75163;SDS011;63746;45.402;37.922;2023-03-14T09:17:25;0.00;;;0.00;;
75163;SDS011;63746;45.402;37.922;2023-03-14T09:19:51;0.00;;;0.00;;
75163;SDS011;63746;45.402;37.922;2023-03-14T09:22:17;0.00;;;0.00;;
75163;SDS011;63746;45.402;37.922;2023-03-14T09:24:43;0.00;;;0.00;;
75163;SDS011;63746;45.402;37.922;2023-03-14T09:27:09;0.00;;;0.00;;
75163;SDS011;63746;45.402;37.922;2023-03-14T09:29:35;0.00;;;0.00;;
75163;SDS011;63746;45.402;37.922;2023-03-14T09:32:01;0.00;;;0.00;;
75163;SDS011;63746;45.402;37.922;2023-03-14T09:34:27;0.00;;;0.00;;
75163;SDS011;63746;45.402;37.922;2023-03-14T09:36:53;0.00;;;0.00;;
75163;SDS011;63746;45.402;37.922;2023-03-14T09:39:19;0.00;;;0.00;;
75163;SDS011;63746;45.402;37.922;2023-03-14T09:41:49;0.00;;;0.00;;
75163;SDS011;63746;45.402;37.922;2023-03-14T09:44:33;0.00;;;0.00;;
75163;SDS011;63746;45.402;37.922;2023-03-14T09:47:05;0.00;;;0.00;;
75163;SDS011;63746;45.402;37.922;2023-03-14T09:49:34;0.00;;;0.00;;
75163;SDS011;63746;45.402;37.922;2023-03-14T09:52:14;0.00;;;0.00;;
75163;SDS011;63746;45.402;37.922;2023-03-14T09:54:48;0.00;;;0.00;;
75163;SDS011;63746;45.402;37.922;2023-03-14T09:57:15;0.00;;;0.00;;
75163;SDS011;63746;45.402;37.922;2023-03-14T09:59:46;0.00;;;0.00;;
75163;SDS011;63746;45.402;37.922;2023-03-14T10:02:21;0.00;;;0.00;;
75163;SDS011;63746;45.402;37.922;2023-03-14T10:04:49;0.08;;;0.00;;
75163;SDS011;63746;45.402;37.922;2023-03-14T10:07:19;0.00;;;0.00;;
75163;SDS011;63746;45.402;37.922;2023-03-14T10:09:54;0.00;;;0.00;;
75163;SDS011;63746;45.402;37.922;2023-03-14T10:12:30;0.00;;;0.00;;
75163;SDS011;63746;45.402;37.922;2023-03-14T10:14:57;0.00;;;0.00;;
75163;SDS011;63746;45.402;37.922;2023-03-14T10:17:49;0.00;;;0.00;;
75163;SDS011;63746;45.402;37.922;2023-03-14T10:20:38;0.00;;;0.00;;
75163;SDS011;63746;45.402;37.922;2023-03-14T10:25:37;0.00;;;0.00;;
75163;SDS011;63746;45.402;37.922;2023-03-14T10:28:24;0.00;;;0.00;;
75163;SDS011;63746;45.402;37.922;2023-03-14T10:30:55;0.00;;;0.00;;
75163;SDS011;63746;45.402;37.922;2023-03-14T10:33:26;0.00;;;0.00;;
75163;SDS011;63746;45.402;37.922;2023-03-14T10:35:57;0.00;;;0.00;;
75163;SDS011;63746;45.402;37.922;2023-03-14T10:38:29;0.05;;;0.05;;
75163;SDS011;63746;45.402;37.922;2023-03-14T10:40:57;0.00;;;0.00;;
75163;SDS011;63746;45.402;37.922;2023-03-14T10:43:33;0.03;;;0.03;;
75163;SDS011;63746;45.402;37.922;2023-03-14T10:46:12;0.00;;;0.00;;
75163;SDS011;63746;45.402;37.922;2023-03-14T10:49:04;0.00;;;0.00;;
75163;SDS011;63746;45.402;37.922;2023-03-14T10:51:30;0.00;;;0.00;;
75163;SDS011;63746;45.402;37.922;2023-03-14T10:54:42;0.05;;;0.00;;
75163;SDS011;63746;45.402;37.922;2023-03-14T10:56:55;0.17;;;0.17;;
75163;SDS011;63746;45.402;37.922;2023-03-14T10:59:23;0.00;;;0.00;;
75163;SDS011;63746;45.402;37.922;2023-03-14T11:07:14;0.00;;;0.00;;
75163;SDS011;63746;45.402;37.922;2023-03-14T11:15:02;0.00;;;0.00;;
75163;SDS011;63746;45.402;37.922;2023-03-14T11:17:35;0.20;;;0.20;;
75163;SDS011;63746;45.402;37.922;2023-03-14T11:25:36;0.00;;;0.00;;
75163;SDS011;63746;45.402;37.922;2023-03-14T11:30:51;0.00;;;0.00;;
75163;SDS011;63746;45.402;37.922;2023-03-14T11:33:46;0.08;;;0.00;;
75163;SDS011;63746;45.402;37.922;2023-03-14T11:36:20;0.00;;;0.00;;
75163;SDS011;63746;45.402;37.922;2023-03-14T11:44:24;0.00;;;0.00;;
75163;SDS011;63746;45.402;37.922;2023-03-14T11:49:35;0.00;;;0.00;;
75163;SDS011;63746;45.402;37.922;2023-03-14T11:52:25;0.22;;;0.00;;
75163;SDS011;63746;45.402;37.922;2023-03-14T11:57:25;0.00;;;0.00;;
75163;SDS011;63746;45.402;37.922;2023-03-14T12:10:38;0.00;;;0.00;;
75163;SDS011;63746;45.402;37.922;2023-03-14T12:13:08;0.00;;;0.00;;
75163;SDS011;63746;45.402;37.922;2023-03-14T12:15:38;0.00;;;0.00;;
75163;SDS011;63746;45.402;37.922;2023-03-14T12:21:03;0.08;;;0.00;;
75163;SDS011;63746;45.402;37.922;2023-03-14T12:23:36;0.00;;;0.00;;
75163;SDS011;63746;45.402;37.922;2023-03-14T12:28:33;0.00;;;0.00;;
75163;SDS011;63746;45.402;37.922;2023-03-14T12:34:30;0.00;;;0.00;;
75163;SDS011;63746;45.402;37.922;2023-03-14T12:36:54;0.00;;;0.00;;
75163;SDS011;63746;45.402;37.922;2023-03-14T12:42:45;0.00;;;0.00;;
75163;SDS011;63746;45.402;37.922;2023-03-14T12:45:26;0.00;;;0.00;;
75163;SDS011;63746;45.402;37.922;2023-03-14T12:50:34;0.00;;;0.00;;
75163;SDS011;63746;45.402;37.922;2023-03-14T12:58:44;0.00;;;0.00;;
75163;SDS011;63746;45.402;37.922;2023-03-14T13:01:34;0.00;;;0.00;;
75163;SDS011;63746;45.402;37.922;2023-03-14T13:04:09;0.00;;;0.00;;
75163;SDS011;63746;45.402;37.922;2023-03-14T13:06:53;0.00;;;0.00;;
75163;SDS011;63746;45.402;37.922;2023-03-14T13:12:09;0.10;;;0.00;;
75163;SDS011;63746;45.402;37.922;2023-03-14T13:14:45;0.25;;;0.03;;
75163;SDS011;63746;45.402;37.922;2023-03-14T13:17:14;0.00;;;0.00;;
75163;SDS011;63746;45.402;37.922;2023-03-14T13:19:44;0.00;;;0.00;;
75163;SDS011;63746;45.402;37.922;2023-03-14T13:22:23;0.00;;;0.00;;
75163;SDS011;63746;45.402;37.922;2023-03-14T13:25:00;0.00;;;0.00;;
75163;SDS011;63746;45.402;37.922;2023-03-14T13:27:29;0.10;;;0.00;;
75163;SDS011;63746;45.402;37.922;2023-03-14T13:29:57;0.00;;;0.00;;
75163;SDS011;63746;45.402;37.922;2023-03-14T13:32:27;0.00;;;0.00;;
75163;SDS011;63746;45.402;37.922;2023-03-14T13:34:55;0.00;;;0.00;;
75163;SDS011;63746;45.402;37.922;2023-03-14T13:37:25;0.00;;;0.00;;
75163;SDS011;63746;45.402;37.922;2023-03-14T13:39:53;0.38;;;0.25;;
75163;SDS011;63746;45.402;37.922;2023-03-14T13:42:26;0.10;;;0.00;;
75163;SDS011;63746;45.402;37.922;2023-03-14T13:44:54;0.10;;;0.00;;
75163;SDS011;63746;45.402;37.922;2023-03-14T13:47:23;0.52;;;0.10;;
75163;SDS011;63746;45.402;37.922;2023-03-14T13:52:30;0.20;;;0.00;;
75163;SDS011;63746;45.402;37.922;2023-03-14T13:55:01;0.28;;;0.00;;
75163;SDS011;63746;45.402;37.922;2023-03-14T13:57:42;0.10;;;0.00;;
75163;SDS011;63746;45.402;37.922;2023-03-14T14:02:52;0.08;;;0.00;;
75163;SDS011;63746;45.402;37.922;2023-03-14T14:05:23;0.17;;;0.00;;
75163;SDS011;63746;45.402;37.922;2023-03-14T14:07:52;0.00;;;0.00;;
75163;SDS011;63746;45.402;37.922;2023-03-14T14:10:18;0.00;;;0.00;;
75163;SDS011;63746;45.402;37.922;2023-03-14T14:15:27;1.55;;;0.17;;
75163;SDS011;63746;45.402;37.922;2023-03-14T14:17:58;2.20;;;1.10;;
75163;SDS011;63746;45.402;37.922;2023-03-14T14:20:28;0.32;;;0.08;;
75163;SDS011;63746;45.402;37.922;2023-03-14T14:23:03;0.00;;;0.00;;
75163;SDS011;63746;45.402;37.922;2023-03-14T14:25:30;0.00;;;0.00;;
75163;SDS011;63746;45.402;37.922;2023-03-14T14:27:57;0.00;;;0.00;;
75163;SDS011;63746;45.402;37.922;2023-03-14T14:30:32;0.00;;;0.00;;
75163;SDS011;63746;45.402;37.922;2023-03-14T14:33:18;2.83;;;0.35;;
75163;SDS011;63746;45.402;37.922;2023-03-14T14:38:22;0.63;;;0.10;;
75163;SDS011;63746;45.402;37.922;2023-03-14T14:40:49;0.45;;;0.20;;
75163;SDS011;63746;45.402;37.922;2023-03-14T14:43:23;0.00;;;0.00;;
75163;SDS011;63746;45.402;37.922;2023-03-14T14:45:51;0.00;;;0.00;;
75163;SDS011;63746;45.402;37.922;2023-03-14T14:48:22;0.00;;;0.00;;
75163;SDS011;63746;45.402;37.922;2023-03-14T14:50:58;0.38;;;0.00;;
75163;SDS011;63746;45.402;37.922;2023-03-14T14:53:28;0.00;;;0.00;;
75163;SDS011;63746;45.402;37.922;2023-03-14T14:55:58;0.10;;;0.00;;
75163;SDS011;63746;45.402;37.922;2023-03-14T14:58:35;0.10;;;0.00;;
75163;SDS011;63746;45.402;37.922;2023-03-14T15:01:07;0.10;;;0.00;;
75163;SDS011;63746;45.402;37.922;2023-03-14T15:03:42;0.00;;;0.00;;
75163;SDS011;63746;45.402;37.922;2023-03-14T15:06:12;0.00;;;0.00;;
75163;SDS011;63746;45.402;37.922;2023-03-14T15:08:40;0.00;;;0.00;;
75163;SDS011;63746;45.402;37.922;2023-03-14T15:11:15;0.08;;;0.00;;
75163;SDS011;63746;45.402;37.922;2023-03-14T15:13:43;0.00;;;0.00;;
75163;SDS011;63746;45.402;37.922;2023-03-14T15:16:10;0.00;;;0.00;;
75163;SDS011;63746;45.402;37.922;2023-03-14T15:18:38;0.17;;;0.00;;
75163;SDS011;63746;45.402;37.922;2023-03-14T15:21:04;0.00;;;0.00;;
75163;SDS011;63746;45.402;37.922;2023-03-14T15:23:30;0.00;;;0.00;;
75163;SDS011;63746;45.402;37.922;2023-03-14T15:25:56;0.00;;;0.00;;
75163;SDS011;63746;45.402;37.922;2023-03-14T15:28:23;79.53;;;36.15;;
75163;SDS011;63746;45.402;37.922;2023-03-14T15:30:51;164.50;;;54.72;;
75163;SDS011;63746;45.402;37.922;2023-03-14T15:33:19;96.75;;;35.40;;
75163;SDS011;63746;45.402;37.922;2023-03-14T15:35:46;227.73;;;63.67;;
75163;SDS011;63746;45.402;37.922;2023-03-14T15:38:14;98.50;;;38.58;;
75163;SDS011;63746;45.402;37.922;2023-03-14T15:40:42;0.80;;;0.15;;
75163;SDS011;63746;45.402;37.922;2023-03-14T15:43:08;1.02;;;0.15;;
75163;SDS011;63746;45.402;37.922;2023-03-14T15:45:34;0.80;;;0.10;;
75163;SDS011;63746;45.402;37.922;2023-03-14T15:48:01;1.45;;;0.20;;
75163;SDS011;63746;45.402;37.922;2023-03-14T15:50:27;0.38;;;0.10;;
75163;SDS011;63746;45.402;37.922;2023-03-14T15:52:53;0.25;;;0.00;;
75163;SDS011;63746;45.402;37.922;2023-03-14T15:55:20;2.00;;;0.95;;
75163;SDS011;63746;45.402;37.922;2023-03-14T15:57:48;1.63;;;1.20;;
75163;SDS011;63746;45.402;37.922;2023-03-14T16:00:18;1.20;;;0.63;;
75163;SDS011;63746;45.402;37.922;2023-03-14T16:02:46;1.65;;;0.43;;
75163;SDS011;63746;45.402;37.922;2023-03-14T16:05:14;0.57;;;0.10;;
75163;SDS011;63746;45.402;37.922;2023-03-14T16:07:40;0.95;;;0.10;;
75163;SDS011;63746;45.402;37.922;2023-03-14T16:10:06;2.13;;;0.65;;
75163;SDS011;63746;45.402;37.922;2023-03-14T16:12:33;0.52;;;0.20;;
75163;SDS011;63746;45.402;37.922;2023-03-14T16:14:59;0.10;;;0.00;;
75163;SDS011;63746;45.402;37.922;2023-03-14T16:17:26;1.27;;;0.17;;
75163;SDS011;63746;45.402;37.922;2023-03-14T16:19:52;0.73;;;0.43;;
75163;SDS011;63746;45.402;37.922;2023-03-14T16:22:18;1.00;;;0.28;;
75163;SDS011;63746;45.402;37.922;2023-03-14T16:24:44;0.13;;;0.00;;
75163;SDS011;63746;45.402;37.922;2023-03-14T16:27:10;1.60;;;1.10;;